EDLI 012118Z 27012KT 9999 ///049 04/03 Q0993

Wind aktuell: 270° mit 14 kt

Wind 10 Minuten extrem:

240° bis 290° mit 8 kt bis 20 kt

Seitenwindkomponente: 5.3 kt

Wolkengrenze 1: 1800

Wolkengrenze 2: 4400

Wolkengrenze 3: keine

Sichtweite: 20.000 Meter

Vorheriges Wetter:

Aktuelles Wetter:

Temperatur: 4.9 °C

Taupunkt: 3.6 °C

Luftfeuchtigkeit: 91%

QNH: 993 hPa 

QFE: 977 hPa

Diese Daten werden automatisch ermittelt bzw. übertragen und sind nicht geprüft. Für die Richtigkeit wird daher keine Gewähr übernommen. Sie ersetzen im übrigen nicht die Flugwetterberatung. Alle Zeitangaben beziehen sich auf UTC. Die Seite wird einmal die Minute aktualisiert! Sollten Sie ein ältere Seite haben, so drücken Sie bitte auf den Reload Button Ihres Browsers!